sensor_id;sensor_type;location;lat;lon;timestamp;temperature;humidity
9915;DHT22;4996;48.746;9.174;2023-04-23T00:00:06;15.80;99.90
9915;DHT22;4996;48.746;9.174;2023-04-23T00:02:32;15.40;99.90
9915;DHT22;4996;48.746;9.174;2023-04-23T00:05:02;15.50;99.90
9915;DHT22;4996;48.746;9.174;2023-04-23T00:07:31;15.40;99.90
9915;DHT22;4996;48.746;9.174;2023-04-23T00:09:57;15.40;99.90
9915;DHT22;4996;48.746;9.174;2023-04-23T00:12:24;15.30;99.90
9915;DHT22;4996;48.746;9.174;2023-04-23T00:14:50;15.30;99.90
9915;DHT22;4996;48.746;9.174;2023-04-23T00:17:15;15.30;99.90
9915;DHT22;4996;48.746;9.174;2023-04-23T00:19:41;15.20;99.90
9915;DHT22;4996;48.746;9.174;2023-04-23T00:22:06;15.10;99.90
9915;DHT22;4996;48.746;9.174;2023-04-23T00:24:32;15.10;99.90
9915;DHT22;4996;48.746;9.174;2023-04-23T00:27:00;15.10;99.90
9915;DHT22;4996;48.746;9.174;2023-04-23T00:29:26;15.20;99.90
9915;DHT22;4996;48.746;9.174;2023-04-23T00:31:51;15.20;99.90
9915;DHT22;4996;48.746;9.174;2023-04-23T00:34:17;15.20;99.90
9915;DHT22;4996;48.746;9.174;2023-04-23T00:36:42;15.20;99.90
9915;DHT22;4996;48.746;9.174;2023-04-23T00:39:08;15.10;99.90
9915;DHT22;4996;48.746;9.174;2023-04-23T00:41:35;15.20;99.90
9915;DHT22;4996;48.746;9.174;2023-04-23T00:44:01;15.00;99.90
9915;DHT22;4996;48.746;9.174;2023-04-23T00:46:28;15.10;99.90
9915;DHT22;4996;48.746;9.174;2023-04-23T00:48:54;15.10;99.90
9915;DHT22;4996;48.746;9.174;2023-04-23T00:51:20;15.00;99.90
9915;DHT22;4996;48.746;9.174;2023-04-23T00:53:47;15.00;99.90
9915;DHT22;4996;48.746;9.174;2023-04-23T00:56:13;14.90;99.90
9915;DHT22;4996;48.746;9.174;2023-04-23T00:58:39;14.90;99.90
9915;DHT22;4996;48.746;9.174;2023-04-23T01:01:05;14.90;99.90
9915;DHT22;4996;48.746;9.174;2023-04-23T01:03:34;14.90;99.90
9915;DHT22;4996;48.746;9.174;2023-04-23T01:06:01;15.00;99.90
9915;DHT22;4996;48.746;9.174;2023-04-23T01:08:27;14.90;99.90
9915;DHT22;4996;48.746;9.174;2023-04-23T01:10:53;14.90;99.90
9915;DHT22;4996;48.746;9.174;2023-04-23T01:13:19;14.70;99.90
9915;DHT22;4996;48.746;9.174;2023-04-23T01:15:46;14.80;99.90
9915;DHT22;4996;48.746;9.174;2023-04-23T01:18:12;14.80;99.90
9915;DHT22;4996;48.746;9.174;2023-04-23T01:20:38;14.90;99.90
9915;DHT22;4996;48.746;9.174;2023-04-23T01:23:04;15.00;99.90
9915;DHT22;4996;48.746;9.174;2023-04-23T01:25:30;14.80;99.90
9915;DHT22;4996;48.746;9.174;2023-04-23T01:27:56;14.90;99.90
9915;DHT22;4996;48.746;9.174;2023-04-23T01:30:23;14.90;99.90
9915;DHT22;4996;48.746;9.174;2023-04-23T01:32:49;14.90;99.90
9915;DHT22;4996;48.746;9.174;2023-04-23T01:35:15;15.00;99.90
9915;DHT22;4996;48.746;9.174;2023-04-23T01:37:41;15.00;99.90
9915;DHT22;4996;48.746;9.174;2023-04-23T01:40:07;15.00;99.90
9915;DHT22;4996;48.746;9.174;2023-04-23T01:42:34;15.10;99.90
9915;DHT22;4996;48.746;9.174;2023-04-23T01:45:01;15.10;99.90
9915;DHT22;4996;48.746;9.174;2023-04-23T01:47:27;14.90;99.90
9915;DHT22;4996;48.746;9.174;2023-04-23T01:49:52;14.90;99.90
9915;DHT22;4996;48.746;9.174;2023-04-23T01:52:18;14.90;99.90
9915;DHT22;4996;48.746;9.174;2023-04-23T01:54:43;14.70;99.90
9915;DHT22;4996;48.746;9.174;2023-04-23T01:57:09;14.80;99.90
9915;DHT22;4996;48.746;9.174;2023-04-23T01:59:36;14.90;99.90
9915;DHT22;4996;48.746;9.174;2023-04-23T02:02:02;14.80;99.90
9915;DHT22;4996;48.746;9.174;2023-04-23T02:04:28;14.90;99.90
9915;DHT22;4996;48.746;9.174;2023-04-23T02:06:54;14.90;99.90
9915;DHT22;4996;48.746;9.174;2023-04-23T02:09:20;15.00;99.90
9915;DHT22;4996;48.746;9.174;2023-04-23T02:11:46;15.00;99.90
9915;DHT22;4996;48.746;9.174;2023-04-23T02:14:11;14.90;99.90
9915;DHT22;4996;48.746;9.174;2023-04-23T02:16:37;15.00;99.90
9915;DHT22;4996;48.746;9.174;2023-04-23T02:19:03;14.90;99.90
9915;DHT22;4996;48.746;9.174;2023-04-23T02:21:28;14.90;99.90
9915;DHT22;4996;48.746;9.174;2023-04-23T02:23:54;14.90;99.90
9915;DHT22;4996;48.746;9.174;2023-04-23T02:26:20;14.80;99.90
9915;DHT22;4996;48.746;9.174;2023-04-23T02:28:47;15.10;99.90
9915;DHT22;4996;48.746;9.174;2023-04-23T02:31:13;14.70;99.90
9915;DHT22;4996;48.746;9.174;2023-04-23T02:33:39;14.70;99.90
9915;DHT22;4996;48.746;9.174;2023-04-23T02:36:06;14.60;99.90
9915;DHT22;4996;48.746;9.174;2023-04-23T02:38:31;14.50;99.90
9915;DHT22;4996;48.746;9.174;2023-04-23T02:40:57;14.60;99.90
9915;DHT22;4996;48.746;9.174;2023-04-23T02:43:22;14.60;99.90
9915;DHT22;4996;48.746;9.174;2023-04-23T02:45:47;14.60;99.90
9915;DHT22;4996;48.746;9.174;2023-04-23T02:48:13;14.50;99.90
9915;DHT22;4996;48.746;9.174;2023-04-23T02:50:38;14.50;99.90
9915;DHT22;4996;48.746;9.174;2023-04-23T02:53:04;14.60;99.90
9915;DHT22;4996;48.746;9.174;2023-04-23T02:55:30;14.50;99.90
9915;DHT22;4996;48.746;9.174;2023-04-23T02:57:57;14.50;99.90
9915;DHT22;4996;48.746;9.174;2023-04-23T03:00:23;14.50;99.90
9915;DHT22;4996;48.746;9.174;2023-04-23T03:02:49;14.40;99.90
9915;DHT22;4996;48.746;9.174;2023-04-23T03:05:14;14.30;99.90
9915;DHT22;4996;48.746;9.174;2023-04-23T03:07:40;14.30;99.90
9915;DHT22;4996;48.746;9.174;2023-04-23T03:10:06;14.30;99.90
9915;DHT22;4996;48.746;9.174;2023-04-23T03:12:32;14.20;99.90
9915;DHT22;4996;48.746;9.174;2023-04-23T03:14:58;14.30;99.90
9915;DHT22;4996;48.746;9.174;2023-04-23T03:17:23;14.30;99.90
9915;DHT22;4996;48.746;9.174;2023-04-23T03:19:49;14.40;99.90
9915;DHT22;4996;48.746;9.174;2023-04-23T03:22:14;14.40;99.90
9915;DHT22;4996;48.746;9.174;2023-04-23T03:24:40;14.30;99.90
9915;DHT22;4996;48.746;9.174;2023-04-23T03:27:05;14.30;99.90
9915;DHT22;4996;48.746;9.174;2023-04-23T03:29:31;14.30;99.90
9915;DHT22;4996;48.746;9.174;2023-04-23T03:31:56;14.30;99.90
9915;DHT22;4996;48.746;9.174;2023-04-23T03:34:22;14.20;99.90
9915;DHT22;4996;48.746;9.174;2023-04-23T03:36:48;14.30;99.90
9915;DHT22;4996;48.746;9.174;2023-04-23T03:39:14;14.20;99.90
9915;DHT22;4996;48.746;9.174;2023-04-23T03:41:40;14.10;99.90
9915;DHT22;4996;48.746;9.174;2023-04-23T03:44:05;14.20;99.90
9915;DHT22;4996;48.746;9.174;2023-04-23T03:46:31;14.10;99.90
9915;DHT22;4996;48.746;9.174;2023-04-23T03:48:56;14.10;99.90
9915;DHT22;4996;48.746;9.174;2023-04-23T03:51:22;14.10;99.90
9915;DHT22;4996;48.746;9.174;2023-04-23T03:53:48;14.10;99.90
9915;DHT22;4996;48.746;9.174;2023-04-23T03:56:13;14.10;99.90
9915;DHT22;4996;48.746;9.174;2023-04-23T03:58:38;14.00;99.90
9915;DHT22;4996;48.746;9.174;2023-04-23T04:01:04;14.00;99.90
9915;DHT22;4996;48.746;9.174;2023-04-23T04:03:30;13.90;99.90
9915;DHT22;4996;48.746;9.174;2023-04-23T04:05:55;13.70;99.90
9915;DHT22;4996;48.746;9.174;2023-04-23T04:08:21;13.80;99.90
9915;DHT22;4996;48.746;9.174;2023-04-23T04:10:46;13.70;99.90
9915;DHT22;4996;48.746;9.174;2023-04-23T04:13:12;13.70;99.90
9915;DHT22;4996;48.746;9.174;2023-04-23T04:15:37;13.70;99.90
9915;DHT22;4996;48.746;9.174;2023-04-23T04:18:03;13.70;99.90
9915;DHT22;4996;48.746;9.174;2023-04-23T04:20:28;13.80;99.90
9915;DHT22;4996;48.746;9.174;2023-04-23T04:22:54;13.80;99.90
9915;DHT22;4996;48.746;9.174;2023-04-23T04:25:20;13.80;99.90
9915;DHT22;4996;48.746;9.174;2023-04-23T04:27:47;13.70;99.90
9915;DHT22;4996;48.746;9.174;2023-04-23T04:30:13;13.70;99.90
9915;DHT22;4996;48.746;9.174;2023-04-23T04:32:38;13.70;99.90
9915;DHT22;4996;48.746;9.174;2023-04-23T04:35:05;13.60;99.90
9915;DHT22;4996;48.746;9.174;2023-04-23T04:37:31;13.60;99.90
9915;DHT22;4996;48.746;9.174;2023-04-23T04:39:56;13.50;99.90
9915;DHT22;4996;48.746;9.174;2023-04-23T04:42:22;13.50;99.90
9915;DHT22;4996;48.746;9.174;2023-04-23T04:44:47;13.50;99.90
9915;DHT22;4996;48.746;9.174;2023-04-23T04:47:13;13.40;99.90
9915;DHT22;4996;48.746;9.174;2023-04-23T04:49:40;13.40;99.90
9915;DHT22;4996;48.746;9.174;2023-04-23T04:52:06;13.40;99.90
9915;DHT22;4996;48.746;9.174;2023-04-23T04:54:31;13.40;99.90
9915;DHT22;4996;48.746;9.174;2023-04-23T04:56:57;13.40;99.90
9915;DHT22;4996;48.746;9.174;2023-04-23T04:59:22;13.40;99.90
9915;DHT22;4996;48.746;9.174;2023-04-23T05:01:48;13.50;99.90
9915;DHT22;4996;48.746;9.174;2023-04-23T05:04:14;13.40;99.90
9915;DHT22;4996;48.746;9.174;2023-04-23T05:06:39;13.50;99.90
9915;DHT22;4996;48.746;9.174;2023-04-23T05:09:05;13.50;99.90
9915;DHT22;4996;48.746;9.174;2023-04-23T05:11:30;13.40;99.90
9915;DHT22;4996;48.746;9.174;2023-04-23T05:13:56;13.50;99.90
9915;DHT22;4996;48.746;9.174;2023-04-23T05:16:22;13.50;99.90
9915;DHT22;4996;48.746;9.174;2023-04-23T05:18:48;13.60;99.90
9915;DHT22;4996;48.746;9.174;2023-04-23T05:21:14;13.70;99.90
9915;DHT22;4996;48.746;9.174;2023-04-23T05:23:39;13.70;99.90
9915;DHT22;4996;48.746;9.174;2023-04-23T05:26:05;13.70;99.90
9915;DHT22;4996;48.746;9.174;2023-04-23T05:28:30;13.70;99.90
9915;DHT22;4996;48.746;9.174;2023-04-23T05:30:56;13.80;99.90
9915;DHT22;4996;48.746;9.174;2023-04-23T05:33:22;13.80;99.90
9915;DHT22;4996;48.746;9.174;2023-04-23T05:35:48;13.80;99.90
9915;DHT22;4996;48.746;9.174;2023-04-23T05:38:14;13.90;99.90
9915;DHT22;4996;48.746;9.174;2023-04-23T05:40:39;13.90;99.90
9915;DHT22;4996;48.746;9.174;2023-04-23T05:43:05;13.90;99.90
9915;DHT22;4996;48.746;9.174;2023-04-23T05:45:30;13.90;99.90
9915;DHT22;4996;48.746;9.174;2023-04-23T05:47:56;13.90;99.90
9915;DHT22;4996;48.746;9.174;2023-04-23T05:50:21;13.90;99.90
9915;DHT22;4996;48.746;9.174;2023-04-23T05:52:47;13.90;99.90
9915;DHT22;4996;48.746;9.174;2023-04-23T05:55:13;14.10;99.90
9915;DHT22;4996;48.746;9.174;2023-04-23T05:57:42;14.20;99.90
9915;DHT22;4996;48.746;9.174;2023-04-23T06:00:08;14.20;99.90
9915;DHT22;4996;48.746;9.174;2023-04-23T06:02:34;14.20;99.90
9915;DHT22;4996;48.746;9.174;2023-04-23T06:04:59;14.20;99.90
9915;DHT22;4996;48.746;9.174;2023-04-23T06:07:25;14.00;99.90
9915;DHT22;4996;48.746;9.174;2023-04-23T06:09:51;13.90;99.90
9915;DHT22;4996;48.746;9.174;2023-04-23T06:12:17;13.80;99.90
9915;DHT22;4996;48.746;9.174;2023-04-23T06:14:42;13.80;99.90
9915;DHT22;4996;48.746;9.174;2023-04-23T06:17:08;13.70;99.90
9915;DHT22;4996;48.746;9.174;2023-04-23T06:19:33;13.60;99.90
9915;DHT22;4996;48.746;9.174;2023-04-23T06:21:59;13.70;99.90
9915;DHT22;4996;48.746;9.174;2023-04-23T06:24:25;13.70;99.90
9915;DHT22;4996;48.746;9.174;2023-04-23T06:26:50;13.90;99.90
9915;DHT22;4996;48.746;9.174;2023-04-23T06:29:16;13.90;99.90
9915;DHT22;4996;48.746;9.174;2023-04-23T06:31:41;13.70;99.90
9915;DHT22;4996;48.746;9.174;2023-04-23T06:34:07;13.80;99.90
9915;DHT22;4996;48.746;9.174;2023-04-23T06:36:32;13.70;99.90
9915;DHT22;4996;48.746;9.174;2023-04-23T06:38:58;13.80;99.90
9915;DHT22;4996;48.746;9.174;2023-04-23T06:41:23;13.80;99.90
9915;DHT22;4996;48.746;9.174;2023-04-23T06:43:49;14.10;99.90
9915;DHT22;4996;48.746;9.174;2023-04-23T06:46:14;13.90;99.90
9915;DHT22;4996;48.746;9.174;2023-04-23T06:48:40;14.40;99.90
9915;DHT22;4996;48.746;9.174;2023-04-23T06:51:06;14.50;99.90
9915;DHT22;4996;48.746;9.174;2023-04-23T06:53:32;14.50;99.90
9915;DHT22;4996;48.746;9.174;2023-04-23T06:55:57;14.60;99.90
9915;DHT22;4996;48.746;9.174;2023-04-23T06:58:23;14.50;99.90
9915;DHT22;4996;48.746;9.174;2023-04-23T07:00:55;14.60;99.90
9915;DHT22;4996;48.746;9.174;2023-04-23T07:03:21;14.70;99.90
9915;DHT22;4996;48.746;9.174;2023-04-23T07:05:46;14.80;99.90
9915;DHT22;4996;48.746;9.174;2023-04-23T07:08:12;14.90;99.90
9915;DHT22;4996;48.746;9.174;2023-04-23T07:10:39;15.20;99.90
9915;DHT22;4996;48.746;9.174;2023-04-23T07:13:04;15.00;99.90
9915;DHT22;4996;48.746;9.174;2023-04-23T07:15:30;15.00;99.90
9915;DHT22;4996;48.746;9.174;2023-04-23T07:17:55;15.20;99.90
9915;DHT22;4996;48.746;9.174;2023-04-23T07:20:21;15.30;99.90
9915;DHT22;4996;48.746;9.174;2023-04-23T07:22:46;15.50;99.90
9915;DHT22;4996;48.746;9.174;2023-04-23T07:25:12;15.70;99.90
9915;DHT22;4996;48.746;9.174;2023-04-23T07:27:38;15.60;99.90
9915;DHT22;4996;48.746;9.174;2023-04-23T07:30:04;15.80;99.90
9915;DHT22;4996;48.746;9.174;2023-04-23T07:32:30;15.90;99.90
9915;DHT22;4996;48.746;9.174;2023-04-23T07:34:55;15.80;99.90
9915;DHT22;4996;48.746;9.174;2023-04-23T07:37:21;15.70;99.90
9915;DHT22;4996;48.746;9.174;2023-04-23T07:39:47;15.90;99.90
9915;DHT22;4996;48.746;9.174;2023-04-23T07:42:13;16.10;99.90
9915;DHT22;4996;48.746;9.174;2023-04-23T07:44:38;16.30;99.90
9915;DHT22;4996;48.746;9.174;2023-04-23T07:47:04;16.20;99.90
9915;DHT22;4996;48.746;9.174;2023-04-23T07:49:29;16.40;99.90
9915;DHT22;4996;48.746;9.174;2023-04-23T07:51:55;16.30;99.90
9915;DHT22;4996;48.746;9.174;2023-04-23T07:54:21;16.10;99.90
9915;DHT22;4996;48.746;9.174;2023-04-23T07:56:46;16.20;99.90
9915;DHT22;4996;48.746;9.174;2023-04-23T07:59:12;16.10;99.90
9915;DHT22;4996;48.746;9.174;2023-04-23T08:01:37;16.40;99.90
9915;DHT22;4996;48.746;9.174;2023-04-23T08:04:03;16.40;99.90
9915;DHT22;4996;48.746;9.174;2023-04-23T08:06:29;16.40;99.90
9915;DHT22;4996;48.746;9.174;2023-04-23T08:08:56;16.30;99.90
9915;DHT22;4996;48.746;9.174;2023-04-23T08:11:21;16.30;99.90
9915;DHT22;4996;48.746;9.174;2023-04-23T08:13:48;16.40;99.90
9915;DHT22;4996;48.746;9.174;2023-04-23T08:16:13;16.30;99.90
9915;DHT22;4996;48.746;9.174;2023-04-23T08:18:39;16.30;99.90
9915;DHT22;4996;48.746;9.174;2023-04-23T08:21:04;16.60;99.90
9915;DHT22;4996;48.746;9.174;2023-04-23T08:23:30;16.70;99.90
9915;DHT22;4996;48.746;9.174;2023-04-23T08:25:55;16.90;99.90
9915;DHT22;4996;48.746;9.174;2023-04-23T08:28:21;17.00;99.90
9915;DHT22;4996;48.746;9.174;2023-04-23T08:30:47;17.10;99.90
9915;DHT22;4996;48.746;9.174;2023-04-23T08:33:13;17.00;99.90
9915;DHT22;4996;48.746;9.174;2023-04-23T08:35:38;17.00;99.90
9915;DHT22;4996;48.746;9.174;2023-04-23T08:38:04;17.20;99.90
9915;DHT22;4996;48.746;9.174;2023-04-23T08:40:31;17.40;99.90
9915;DHT22;4996;48.746;9.174;2023-04-23T08:43:00;17.40;99.90
9915;DHT22;4996;48.746;9.174;2023-04-23T08:45:26;17.50;99.90
9915;DHT22;4996;48.746;9.174;2023-04-23T08:47:59;17.80;99.90
9915;DHT22;4996;48.746;9.174;2023-04-23T08:50:28;18.40;99.90
9915;DHT22;4996;48.746;9.174;2023-04-23T08:52:55;18.80;99.90
9915;DHT22;4996;48.746;9.174;2023-04-23T08:55:22;18.80;99.90
9915;DHT22;4996;48.746;9.174;2023-04-23T08:57:48;19.00;99.90
9915;DHT22;4996;48.746;9.174;2023-04-23T09:00:16;19.00;99.90
9915;DHT22;4996;48.746;9.174;2023-04-23T09:02:43;18.80;99.90
9915;DHT22;4996;48.746;9.174;2023-04-23T09:05:10;19.20;99.90
9915;DHT22;4996;48.746;9.174;2023-04-23T09:07:36;19.50;99.90
9915;DHT22;4996;48.746;9.174;2023-04-23T09:10:03;19.60;99.90
9915;DHT22;4996;48.746;9.174;2023-04-23T09:12:30;19.10;99.90
9915;DHT22;4996;48.746;9.174;2023-04-23T09:14:56;19.10;99.90
9915;DHT22;4996;48.746;9.174;2023-04-23T09:17:22;19.10;99.90
9915;DHT22;4996;48.746;9.174;2023-04-23T09:19:49;19.20;99.90
9915;DHT22;4996;48.746;9.174;2023-04-23T09:22:36;19.40;99.90
9915;DHT22;4996;48.746;9.174;2023-04-23T09:25:02;19.00;99.90
9915;DHT22;4996;48.746;9.174;2023-04-23T09:27:28;19.10;99.90
9915;DHT22;4996;48.746;9.174;2023-04-23T09:29:53;18.70;99.90
9915;DHT22;4996;48.746;9.174;2023-04-23T09:32:30;18.80;99.90
9915;DHT22;4996;48.746;9.174;2023-04-23T09:34:57;18.80;99.90
9915;DHT22;4996;48.746;9.174;2023-04-23T09:37:26;18.80;99.90
9915;DHT22;4996;48.746;9.174;2023-04-23T09:39:53;19.00;99.90
9915;DHT22;4996;48.746;9.174;2023-04-23T09:42:23;19.10;99.90
9915;DHT22;4996;48.746;9.174;2023-04-23T09:45:10;19.20;99.90
9915;DHT22;4996;48.746;9.174;2023-04-23T09:47:47;19.30;99.90
9915;DHT22;4996;48.746;9.174;2023-04-23T09:50:12;19.30;99.90
9915;DHT22;4996;48.746;9.174;2023-04-23T09:52:38;19.30;99.90
9915;DHT22;4996;48.746;9.174;2023-04-23T09:55:06;19.60;99.90
9915;DHT22;4996;48.746;9.174;2023-04-23T09:57:40;19.80;99.90
9915;DHT22;4996;48.746;9.174;2023-04-23T10:00:17;19.80;99.90
9915;DHT22;4996;48.746;9.174;2023-04-23T10:02:46;19.50;99.90
9915;DHT22;4996;48.746;9.174;2023-04-23T10:05:16;19.40;99.90
9915;DHT22;4996;48.746;9.174;2023-04-23T10:07:43;19.40;99.90
9915;DHT22;4996;48.746;9.174;2023-04-23T10:10:10;19.10;99.90
9915;DHT22;4996;48.746;9.174;2023-04-23T10:12:35;18.60;99.90
9915;DHT22;4996;48.746;9.174;2023-04-23T10:15:03;18.70;99.90
9915;DHT22;4996;48.746;9.174;2023-04-23T10:17:29;18.60;99.90
9915;DHT22;4996;48.746;9.174;2023-04-23T10:19:57;18.70;99.90
9915;DHT22;4996;48.746;9.174;2023-04-23T10:22:24;18.70;99.90
9915;DHT22;4996;48.746;9.174;2023-04-23T10:24:52;19.00;99.90
9915;DHT22;4996;48.746;9.174;2023-04-23T10:27:22;18.90;99.90
9915;DHT22;4996;48.746;9.174;2023-04-23T10:29:50;19.30;99.90
9915;DHT22;4996;48.746;9.174;2023-04-23T10:32:16;19.50;99.90
9915;DHT22;4996;48.746;9.174;2023-04-23T10:34:42;19.70;99.90
9915;DHT22;4996;48.746;9.174;2023-04-23T10:37:09;19.50;99.90
9915;DHT22;4996;48.746;9.174;2023-04-23T10:39:36;19.80;99.90
9915;DHT22;4996;48.746;9.174;2023-04-23T10:42:03;19.90;99.90
9915;DHT22;4996;48.746;9.174;2023-04-23T10:44:34;19.90;99.90
9915;DHT22;4996;48.746;9.174;2023-04-23T10:47:00;20.00;99.60
9915;DHT22;4996;48.746;9.174;2023-04-23T10:49:29;20.00;99.40
9915;DHT22;4996;48.746;9.174;2023-04-23T10:52:03;20.00;99.90
9915;DHT22;4996;48.746;9.174;2023-04-23T10:54:30;20.00;99.20
9915;DHT22;4996;48.746;9.174;2023-04-23T10:57:00;19.70;99.30
9915;DHT22;4996;48.746;9.174;2023-04-23T10:59:28;20.10;98.70
9915;DHT22;4996;48.746;9.174;2023-04-23T11:01:56;20.30;98.30
9915;DHT22;4996;48.746;9.174;2023-04-23T11:04:28;20.20;98.00
9915;DHT22;4996;48.746;9.174;2023-04-23T11:07:04;20.20;98.10
9915;DHT22;4996;48.746;9.174;2023-04-23T11:12:09;20.50;98.10
9915;DHT22;4996;48.746;9.174;2023-04-23T11:17:15;21.50;95.70
9915;DHT22;4996;48.746;9.174;2023-04-23T11:19:43;21.30;95.50
9915;DHT22;4996;48.746;9.174;2023-04-23T11:22:33;21.40;96.50
9915;DHT22;4996;48.746;9.174;2023-04-23T11:24:58;21.40;96.10
9915;DHT22;4996;48.746;9.174;2023-04-23T11:27:26;21.30;94.70
9915;DHT22;4996;48.746;9.174;2023-04-23T11:29:54;21.10;95.40
9915;DHT22;4996;48.746;9.174;2023-04-23T11:32:20;20.70;95.70
9915;DHT22;4996;48.746;9.174;2023-04-23T11:34:47;20.50;95.70
9915;DHT22;4996;48.746;9.174;2023-04-23T11:37:14;20.80;95.60
9915;DHT22;4996;48.746;9.174;2023-04-23T11:39:41;21.00;95.40
9915;DHT22;4996;48.746;9.174;2023-04-23T11:42:14;20.90;95.60
9915;DHT22;4996;48.746;9.174;2023-04-23T11:44:42;21.00;95.90
9915;DHT22;4996;48.746;9.174;2023-04-23T11:47:12;21.00;95.50
9915;DHT22;4996;48.746;9.174;2023-04-23T11:49:39;21.40;94.90
9915;DHT22;4996;48.746;9.174;2023-04-23T11:52:05;21.50;95.10
9915;DHT22;4996;48.746;9.174;2023-04-23T11:54:31;21.50;94.70
9915;DHT22;4996;48.746;9.174;2023-04-23T11:56:57;22.00;93.70
9915;DHT22;4996;48.746;9.174;2023-04-23T11:59:24;22.60;93.30
9915;DHT22;4996;48.746;9.174;2023-04-23T12:01:53;23.00;92.40
9915;DHT22;4996;48.746;9.174;2023-04-23T12:04:21;23.30;91.60
9915;DHT22;4996;48.746;9.174;2023-04-23T12:06:49;23.80;91.10
9915;DHT22;4996;48.746;9.174;2023-04-23T12:09:16;23.80;89.50
9915;DHT22;4996;48.746;9.174;2023-04-23T12:11:43;24.10;88.90
9915;DHT22;4996;48.746;9.174;2023-04-23T12:14:10;24.30;87.00
9915;DHT22;4996;48.746;9.174;2023-04-23T12:16:41;24.30;87.80
9915;DHT22;4996;48.746;9.174;2023-04-23T12:19:08;23.70;88.10
9915;DHT22;4996;48.746;9.174;2023-04-23T12:21:45;22.90;89.40
9915;DHT22;4996;48.746;9.174;2023-04-23T12:24:11;22.20;90.50
9915;DHT22;4996;48.746;9.174;2023-04-23T12:26:37;21.80;90.90
9915;DHT22;4996;48.746;9.174;2023-04-23T12:29:02;21.20;91.40
9915;DHT22;4996;48.746;9.174;2023-04-23T12:31:28;21.10;91.90
9915;DHT22;4996;48.746;9.174;2023-04-23T12:36:30;22.10;91.20
9915;DHT22;4996;48.746;9.174;2023-04-23T12:41:47;23.20;90.20
9915;DHT22;4996;48.746;9.174;2023-04-23T12:44:12;23.40;89.10
9915;DHT22;4996;48.746;9.174;2023-04-23T12:46:38;23.70;89.60
9915;DHT22;4996;48.746;9.174;2023-04-23T12:49:03;23.70;87.90
9915;DHT22;4996;48.746;9.174;2023-04-23T12:51:29;23.10;88.80
9915;DHT22;4996;48.746;9.174;2023-04-23T12:53:55;22.60;90.20
9915;DHT22;4996;48.746;9.174;2023-04-23T12:56:20;22.20;91.10
9915;DHT22;4996;48.746;9.174;2023-04-23T12:58:46;22.50;90.90
9915;DHT22;4996;48.746;9.174;2023-04-23T13:01:11;23.70;90.40
9915;DHT22;4996;48.746;9.174;2023-04-23T13:03:38;24.00;89.90
9915;DHT22;4996;48.746;9.174;2023-04-23T13:06:04;24.40;88.20
9915;DHT22;4996;48.746;9.174;2023-04-23T13:08:32;24.90;86.90
9915;DHT22;4996;48.746;9.174;2023-04-23T13:10:57;25.10;85.20
9915;DHT22;4996;48.746;9.174;2023-04-23T13:13:23;25.30;84.70
9915;DHT22;4996;48.746;9.174;2023-04-23T13:15:49;25.60;84.40
9915;DHT22;4996;48.746;9.174;2023-04-23T13:18:14;25.80;83.20
9915;DHT22;4996;48.746;9.174;2023-04-23T13:20:40;25.70;82.60
9915;DHT22;4996;48.746;9.174;2023-04-23T13:23:06;25.70;75.80
9915;DHT22;4996;48.746;9.174;2023-04-23T13:25:33;25.10;75.80
9915;DHT22;4996;48.746;9.174;2023-04-23T13:27:58;25.00;74.80
9915;DHT22;4996;48.746;9.174;2023-04-23T13:30:24;24.40;74.30
9915;DHT22;4996;48.746;9.174;2023-04-23T13:32:49;24.00;75.70
9915;DHT22;4996;48.746;9.174;2023-04-23T13:35:15;23.90;76.00
9915;DHT22;4996;48.746;9.174;2023-04-23T13:37:42;23.60;76.30
9915;DHT22;4996;48.746;9.174;2023-04-23T13:40:07;23.10;74.90
9915;DHT22;4996;48.746;9.174;2023-04-23T13:42:33;22.40;75.60
9915;DHT22;4996;48.746;9.174;2023-04-23T13:44:59;22.50;75.90
9915;DHT22;4996;48.746;9.174;2023-04-23T13:47:26;22.40;76.10
9915;DHT22;4996;48.746;9.174;2023-04-23T13:49:55;22.60;77.10
9915;DHT22;4996;48.746;9.174;2023-04-23T13:52:21;22.80;76.80
9915;DHT22;4996;48.746;9.174;2023-04-23T13:54:46;22.70;75.50
9915;DHT22;4996;48.746;9.174;2023-04-23T13:57:13;22.70;76.10
9915;DHT22;4996;48.746;9.174;2023-04-23T13:59:39;22.60;74.70
9915;DHT22;4996;48.746;9.174;2023-04-23T14:02:04;22.60;75.70
9915;DHT22;4996;48.746;9.174;2023-04-23T14:04:31;22.60;74.70
9915;DHT22;4996;48.746;9.174;2023-04-23T14:06:56;22.10;75.60
9915;DHT22;4996;48.746;9.174;2023-04-23T14:09:22;22.20;75.40
9915;DHT22;4996;48.746;9.174;2023-04-23T14:11:48;22.30;76.10
9915;DHT22;4996;48.746;9.174;2023-04-23T14:14:13;22.30;75.90
9915;DHT22;4996;48.746;9.174;2023-04-23T14:16:39;22.30;75.30
9915;DHT22;4996;48.746;9.174;2023-04-23T14:19:05;22.60;75.20
9915;DHT22;4996;48.746;9.174;2023-04-23T14:21:30;22.20;75.70
9915;DHT22;4996;48.746;9.174;2023-04-23T14:24:20;22.20;75.60
9915;DHT22;4996;48.746;9.174;2023-04-23T14:26:46;22.30;75.30
9915;DHT22;4996;48.746;9.174;2023-04-23T14:29:29;22.10;76.10
9915;DHT22;4996;48.746;9.174;2023-04-23T14:31:55;22.10;76.90
9915;DHT22;4996;48.746;9.174;2023-04-23T14:34:21;22.40;77.30
9915;DHT22;4996;48.746;9.174;2023-04-23T14:36:46;22.30;75.80
9915;DHT22;4996;48.746;9.174;2023-04-23T14:39:14;22.30;76.30
9915;DHT22;4996;48.746;9.174;2023-04-23T14:41:39;22.20;76.60
9915;DHT22;4996;48.746;9.174;2023-04-23T14:44:05;21.90;77.10
9915;DHT22;4996;48.746;9.174;2023-04-23T14:46:31;21.90;77.60
9915;DHT22;4996;48.746;9.174;2023-04-23T14:48:57;21.80;77.90
9915;DHT22;4996;48.746;9.174;2023-04-23T14:51:22;21.60;79.20
9915;DHT22;4996;48.746;9.174;2023-04-23T14:53:48;21.70;80.20
9915;DHT22;4996;48.746;9.174;2023-04-23T14:56:14;21.80;81.10
9915;DHT22;4996;48.746;9.174;2023-04-23T14:58:39;21.60;81.50
9915;DHT22;4996;48.746;9.174;2023-04-23T15:01:06;21.70;82.30
9915;DHT22;4996;48.746;9.174;2023-04-23T15:03:32;21.60;81.70
9915;DHT22;4996;48.746;9.174;2023-04-23T15:05:57;21.70;81.90
9915;DHT22;4996;48.746;9.174;2023-04-23T15:08:23;21.70;79.30
9915;DHT22;4996;48.746;9.174;2023-04-23T15:10:48;21.60;76.70
9915;DHT22;4996;48.746;9.174;2023-04-23T15:15:50;21.60;74.70
9915;DHT22;4996;48.746;9.174;2023-04-23T15:18:19;21.70;74.50
9915;DHT22;4996;48.746;9.174;2023-04-23T15:20:45;21.60;74.20
9915;DHT22;4996;48.746;9.174;2023-04-23T15:23:10;21.60;72.90
9915;DHT22;4996;48.746;9.174;2023-04-23T15:25:36;21.40;73.40
9915;DHT22;4996;48.746;9.174;2023-04-23T15:28:03;21.50;75.00
9915;DHT22;4996;48.746;9.174;2023-04-23T15:30:30;21.50;75.10
9915;DHT22;4996;48.746;9.174;2023-04-23T15:32:55;21.30;76.90
9915;DHT22;4996;48.746;9.174;2023-04-23T15:35:25;21.10;78.50
9915;DHT22;4996;48.746;9.174;2023-04-23T15:37:52;20.90;80.60
9915;DHT22;4996;48.746;9.174;2023-04-23T15:40:18;20.40;84.70
9915;DHT22;4996;48.746;9.174;2023-04-23T15:42:43;19.80;90.60
9915;DHT22;4996;48.746;9.174;2023-04-23T15:45:10;19.20;93.10
9915;DHT22;4996;48.746;9.174;2023-04-23T15:47:36;18.50;95.60
9915;DHT22;4996;48.746;9.174;2023-04-23T15:50:03;18.00;99.90
9915;DHT22;4996;48.746;9.174;2023-04-23T15:52:30;17.40;99.90
9915;DHT22;4996;48.746;9.174;2023-04-23T15:54:55;17.30;99.90
9915;DHT22;4996;48.746;9.174;2023-04-23T15:57:21;17.30;99.90
9915;DHT22;4996;48.746;9.174;2023-04-23T15:59:46;17.40;99.90
9915;DHT22;4996;48.746;9.174;2023-04-23T16:02:12;17.50;99.90
9915;DHT22;4996;48.746;9.174;2023-04-23T16:04:38;17.70;99.90
9915;DHT22;4996;48.746;9.174;2023-04-23T16:07:03;17.70;99.90
9915;DHT22;4996;48.746;9.174;2023-04-23T16:09:29;17.80;99.90